Latest Weather Observations for Double Island Point

IDQ60801

Issued at 6:02 pm EST Thursday 2 July 2015 (issued every 30 minutes, with the page automatically refreshed every 10 minutes)

About weather observations | Map of weather stations | Latest weather observations for QLD | Other Formats
Station Details ID: 040068 Name: DOUBLE ISLAND POINT LIGHTHOUSE Lat: -25.93 Lon: 153.19 Height: 95.64 m
Data from the previous 72 hours. | See also: Recent months at Double Island Point
Date/Time
EST
Temp
°C
App
Temp
°C
Dew
Point
Rel
Hum
%
Delta-T
°C
Wind Press
QNH
hPa
Press
MSL
hPa
Rain
since 9 am
mm
Dir
 
Spd
km/h
Gust
km/h
Spd
kts
Gust
kts
02/06:00pm 16.1 11.9 7.3 56 4.4 SSW 19 22 10 12 1018.8 1018.6 0.0
02/05:30pm 16.9 13.3 8.3 57 4.4 S 17 22 9 12 1018.7 1018.5 0.0
02/05:00pm 17.8 14.9 8.1 53 5.0 WSW 13 15 7 8 1018.5 1018.3 0.0
02/04:30pm 18.7 15.6 7.2 47 5.8 WSW 13 19 7 10 1018.2 1018.0 0.0
02/04:00pm 19.7 16.2 7.4 45 6.3 WSW 15 22 8 12 1018.2 1018.0 0.0
02/03:30pm 19.7 16.1 8.4 48 5.9 SW 17 22 9 12 1018.0 1017.8 0.0
02/03:00pm 19.9 17.2 8.9 49 5.8 SW 13 19 7 10 1017.9 1017.7 0.0
02/02:30pm 20.4 17.8 9.3 49 5.9 W 13 17 7 9 1017.8 1017.6 0.0
02/02:00pm 20.7 18.7 10.2 51 5.7 WSW 11 17 6 9 1018.1 1017.9 0.0
02/01:30pm 20.1 18.6 10.5 54 5.2 SSW 9 17 5 9 1018.7 1018.5 0.0
02/01:00pm 20.7 19.7 11.1 54 5.3 SW 7 13 4 7 1018.9 1018.7 0.0
02/12:30pm 19.3 18.2 10.6 57 4.7 ESE 7 9 4 5 1019.3 1019.2 0.0
02/12:00pm 18.9 17.8 10.5 58 4.5 SSW 7 13 4 7 1020.0 1019.9 0.0
02/11:30am 18.5 16.0 9.8 57 4.6 S 13 17 7 9 1020.6 1020.5 0.0
02/11:00am 18.8 16.5 10.6 59 4.4 SSW 13 19 7 10 1021.2 1021.1 0.0
02/10:30am 18.3 16.0 10.4 60 4.2 SSW 13 19 7 10 1021.7 1021.6 0.0
02/10:00am 17.6 14.7 9.5 59 4.2 S 15 20 8 11 1021.8 1021.7 0.0
02/09:30am 17.5 15.3 9.4 59 4.3 SSW 11 17 6 9 1021.8 1021.7 0.0
02/09:00am 17.3 14.9 10.0 62 3.9 S 13 19 7 10 1021.8 1021.7 0.0
02/08:30am 16.8 14.3 9.7 63 3.7 SSW 13 19 7 10 1021.6 1021.5 0.0
02/08:00am 15.9 12.9 9.3 65 3.4 SSW 15 19 8 10 1021.3 1021.2 0.0
02/07:30am 15.4 12.2 8.6 64 3.5 S 15 20 8 11 1021.1 1021.0 0.0
02/07:00am 14.7 11.8 8.2 65 3.3 WSW 13 17 7 9 1020.9 1020.8 0.0
02/06:30am 15.0 11.0 8.9 67 3.1 SSW 20 26 11 14 1020.5 1020.4 0.0
02/06:00am 15.3 11.4 8.8 65 3.3 S 19 20 10 11 1020.2 1020.1 0.0
02/05:30am 15.7 11.2 8.7 63 3.6 SSW 22 24 12 13 1020.2 1020.1 0.0
02/05:00am 15.9 11.8 8.6 62 3.7 SSW 20 24 11 13 1019.9 1019.8 0.0
02/04:30am 15.8 11.7 8.5 62 3.7 SSW 20 26 11 14 1020.0 1019.9 0.0
02/04:00am 15.6 11.2 8.8 64 3.5 SSW 22 28 12 15 1020.2 1020.1 0.0
02/03:30am 15.6 11.5 8.8 64 3.5 SSW 20 26 11 14 1020.3 1020.2 0.0
02/03:00am 15.6 11.6 9.1 65 3.3 SSW 20 24 11 13 1020.3 1020.2 0.0
02/02:30am 15.4 11.8 9.7 69 3.0 SSW 19 22 10 12 1020.4 1020.3 0.0
02/02:00am 15.7 12.2 10.2 70 2.9 S 19 22 10 12 1020.5 1020.4 0.0
02/01:30am 15.9 12.2 10.0 68 3.1 S 20 24 11 13 1020.7 1020.6 0.0
02/01:00am 15.5 12.5 10.5 72 2.6 S 17 20 9 11 1021.0 1020.9 0.0
02/12:30am 16.6 12.4 9.8 64 3.6 WSW 22 26 12 14 1021.0 1020.9 0.0
02/12:00am 17.1 13.7 11.4 69 3.1 WSW 20 26 11 14 1021.4 1021.3 0.0
 
Date/Time
EST
Temp
°C
App
Temp
°C
Dew
Point
Rel
Hum
%
Delta-T
°C
Wind Press
QNH
hPa
Press
MSL
hPa
Rain
since 9 am
mm
Dir
 
Spd
km/h
Gust
km/h
Spd
kts
Gust
kts
01/11:30pm 17.3 14.9 12.6 74 2.6 WSW 17 20 9 11 1021.7 1021.6 0.0
01/11:00pm 18.2 15.1 11.5 65 3.7 SW 19 22 10 12 1021.9 1021.8 0.0
01/10:30pm 18.1 16.7 12.1 68 3.3 WSW 11 15 6 8 1022.2 1022.1 0.0
01/10:00pm 18.0 17.8 13.5 75 2.5 SSW 7 9 4 5 1022.3 1022.2 0.0
01/09:30pm 18.3 18.5 14.2 77 2.4 S 6 11 3 6 1022.3 1022.2 0.0
01/09:00pm 18.3 18.5 14.2 77 2.4 SSE 6 7 3 4 1022.2 1022.1 0.0
01/08:30pm 18.4 18.5 14.5 78 2.3 SE 7 9 4 5 1022.2 1022.1 0.0
01/08:00pm 18.3 17.6 14.4 78 2.2 SE 11 13 6 7 1022.1 1022.0 0.0
01/07:30pm 18.5 17.5 14.6 78 2.3 SE 13 15 7 8 1021.9 1021.8 0.0
01/07:00pm 18.6 16.6 13.9 74 2.7 SE 17 19 9 10 1021.6 1021.5 0.0
01/06:30pm 18.4 16.3 13.5 73 2.8 SE 17 19 9 10 1021.3 1021.2 0.0
01/06:00pm 18.6 16.7 14.3 76 2.5 SE 17 19 9 10 1021.0 1020.9 0.0
01/05:30pm 18.7 16.1 13.8 73 2.8 SE 20 24 11 13 1021.0 1020.9 0.0
01/05:00pm 18.8 16.2 13.9 73 2.8 SE 20 22 11 12 1020.7 1020.6 0.0
01/04:30pm 18.9 16.7 13.3 70 3.2 SE 17 20 9 11 1020.6 1020.5 0.0
01/04:00pm 19.2 16.5 12.9 67 3.6 SE 19 20 10 11 1020.7 1020.6 0.0
01/03:30pm 19.8 18.2 12.8 64 4.0 SE 13 17 7 9 1020.6 1020.5 0.0
01/03:00pm 19.6 17.8 12.1 62 4.2 SSE 13 17 7 9 1020.7 1020.6 0.0
01/02:30pm 20.2 18.6 12.9 63 4.2 SSE 13 19 7 10 1020.8 1020.7 0.0
01/02:00pm 19.4 18.0 12.2 63 4.0 SSE 11 15 6 8 1021.1 1021.0 0.0
01/01:30pm 20.5 19.0 13.0 62 4.3 SE 13 15 7 8 1021.1 1021.0 0.0
01/01:00pm 20.1 18.8 13.6 66 3.7 SE 13 15 7 8 1021.4 1021.3 0.0
01/12:30pm 20.2 18.5 13.6 66 3.8 SSE 15 19 8 10 1021.9 1021.8 0.0
01/12:00pm 20.0 18.3 13.7 67 3.6 SSE 15 17 8 9 1022.6 1022.5 0.0
01/11:30am 19.7 18.1 13.9 69 3.3 SSE 15 20 8 11 1023.1 1023.0 0.0
01/11:00am 19.4 17.8 13.8 70 3.2 S 15 20 8 11 1023.5 1023.4 0.0
01/10:30am 19.3 17.7 13.9 71 3.1 S 15 19 8 10 1023.9 1023.8 0.0
01/10:00am 19.0 17.0 13.8 72 3.0 S 17 20 9 11 1024.1 1024.0 0.0
01/09:30am 18.7 16.4 14.0 74 2.7 S 19 24 10 13 1024.2 1024.1 0.0
01/09:00am 18.2 15.6 13.7 75 2.6 S 20 28 11 15 1024.2 1024.1 0.0
01/08:30am 18.0 15.4 13.9 77 2.3 S 20 28 11 15 1023.9 1023.8 0.0
01/08:00am 17.6 15.2 13.9 79 2.1 S 19 22 10 12 1023.8 1023.7 0.0
01/07:30am 17.0 14.6 13.7 81 1.9 S 19 22 10 12 1023.6 1023.5 0.0
01/07:00am 17.0 14.4 13.9 82 1.8 S 20 24 11 13 1023.3 1023.2 0.0
01/06:30am 16.9 14.0 14.0 83 1.7 S 22 24 12 13 1023.0 1022.9 0.0
01/06:00am 16.9 14.3 13.8 82 1.8 S 20 24 11 13 1022.9 1022.8 0.0
01/05:30am 17.2 14.7 14.1 82 1.8 S 20 24 11 13 1022.7 1022.6 0.0
01/05:00am 17.1 14.0 14.4 84 1.5 S 24 26 13 14 1022.8 1022.7 0.0
01/04:30am 17.4 15.2 14.9 85 1.5 S 20 24 11 13 1022.7 1022.6 0.0
01/04:00am 17.6 15.6 15.0 85 1.5 S 19 20 10 11 1022.6 1022.5 0.0
01/03:30am 17.6 15.4 15.0 85 1.5 S 20 24 11 13 1022.6 1022.5 0.0
01/03:00am 17.6 15.3 14.7 83 1.7 S 20 22 11 12 1022.7 1022.6 0.0
01/02:30am 17.7 15.5 15.0 84 1.6 S 20 20 11 11 1022.8 1022.7 0.0
01/02:00am 17.6 16.0 14.9 84 1.6 S 17 20 9 11 1023.3 1023.2 0.0
01/01:30am 17.7 16.0 14.8 83 1.7 S 17 19 9 10 1023.5 1023.4 0.0
01/01:00am 17.7 15.5 14.8 83 1.7 S 20 24 11 13 1024.0 1023.9 0.0
01/12:30am 17.8 15.7 14.7 82 1.8 S 19 20 10 11 1024.2 1024.1 0.0
01/12:00am 18.0 15.8 14.9 82 1.8 S 20 24 11 13 1024.4 1024.2 0.0
 
Date/Time
EST
Temp
°C
App
Temp
°C
Dew
Point
Rel
Hum
%
Delta-T
°C
Wind Press
QNH
hPa
Press
MSL
hPa
Rain
since 9 am
mm
Dir
 
Spd
km/h
Gust
km/h
Spd
kts
Gust
kts
30/11:30pm 18.4 15.8 14.9 80 2.0 S 22 24 12 13 1024.6 1024.4 0.0
30/11:00pm 18.4 16.8 14.9 80 2.0 S 17 20 9 11 1025.0 1024.8 0.0
30/10:30pm 18.3 16.2 14.8 80 2.0 S 19 20 10 11 1025.0 1024.8 0.0
30/10:00pm 18.3 16.2 14.8 80 2.0 S 19 19 10 10 1025.2 1025.0 0.0
30/09:30pm 18.3 16.1 15.0 81 1.9 S 20 22 11 12 1025.3 1025.1 0.0
30/09:00pm 18.2 15.9 14.7 80 2.0 S 20 22 11 12 1025.0 1024.8 0.0
30/08:30pm 18.1 16.0 14.8 81 1.9 S 19 20 10 11 1024.9 1024.7 0.0
30/08:00pm 18.4 16.2 14.9 80 2.0 S 20 22 11 12 1024.7 1024.5 0.0
30/07:30pm 18.5 16.8 14.8 79 2.2 S 17 20 9 11 1024.6 1024.4 0.0
30/07:00pm 18.7 16.1 14.8 78 2.3 SSE 22 28 12 15 1024.4 1024.2 0.0
30/06:30pm 18.7 15.7 14.8 78 2.3 SSE 24 30 13 16 1024.0 1023.9 0.0
30/06:00pm 18.7 15.3 14.8 78 2.3 SSE 26 32 14 17 1023.8 1023.7 0.0
30/05:30pm 18.8 15.5 14.9 78 2.3 SSE 26 32 14 17 1023.7 1023.6 0.0
30/05:00pm 18.7 15.7 14.8 78 2.3 SSE 24 30 13 16 1023.7 1023.6 0.0
30/04:30pm 18.9 15.8 14.6 76 2.5 SSE 24 30 13 16 1023.6 1023.5 0.0
30/04:00pm 19.1 15.6 14.4 74 2.7 SSE 26 30 14 16 1023.6 1023.5 0.0
30/03:30pm 19.2 16.4 14.2 73 2.9 SSE 22 28 12 15 1023.7 1023.6 0.0
30/03:00pm 19.3 16.0 14.1 72 3.0 SSE 24 30 13 16 1023.4 1023.3 0.0
30/02:30pm 19.5 16.8 14.5 73 2.9 SSE 22 28 12 15 1023.5 1023.4 0.0
30/02:00pm 19.5 16.3 14.3 72 3.0 SSE 24 30 13 16 1023.6 1023.5 0.0
30/01:30pm 19.5 16.0 14.5 73 2.9 SSE 26 33 14 18 1023.9 1023.8 0.0
30/01:00pm 19.5 15.7 14.7 74 2.8 SSE 28 35 15 19 1024.2 1024.1 0.0
30/12:30pm 19.4 15.3 14.9 75 2.6 SSE 30 37 16 20 1024.8 1024.6 0.0
30/12:00pm 19.3 15.2 15.0 76 2.5 SSE 30 39 16 21 1025.4 1025.2 0.0
30/11:30am 19.1 14.6 15.0 77 2.4 SSE 32 37 17 20 1025.8 1025.6 0.0
30/11:00am 18.7 14.0 14.8 78 2.3 SSE 33 41 18 22 1026.1 1025.9 0.0
30/10:30am 18.7 13.4 15.2 80 2.1 SSE 37 44 20 24 1026.4 1026.2 0.0
30/10:00am 18.3 13.7 15.0 81 1.9 S 33 43 18 23 1026.5 1026.3 0.0
30/09:30am 18.6 14.1 15.3 81 1.9 SSE 33 39 18 21 1026.7 1026.5 0.0
30/09:00am 18.4 13.5 15.3 82 1.8 SSE 35 43 19 23 1026.7 1026.5 2.0
30/08:30am 18.2 12.9 15.3 83 1.7 SSE 37 46 20 25 1026.4 1026.2 2.0
30/08:00am 17.8 12.1 15.2 85 1.5 SSE 39 46 21 25 1026.2 1026.0 2.0
30/07:30am 17.8 11.7 15.2 85 1.5 SSE 41 50 22 27 1025.8 1025.6 2.0
30/07:00am 17.8 12.1 15.2 85 1.5 SSE 39 50 21 27 1025.3 1025.1 2.0
30/06:30am 17.3 11.6 15.3 88 1.2 S 39 48 21 26 1025.5 1025.3 2.0
30/06:00am 16.8 11.3 14.8 88 1.2 S 37 44 20 24 1025.4 1025.2 2.0
30/05:30am 16.9 11.1 14.9 88 1.2 SSE 39 48 21 26 1025.4 1025.2 2.0
30/05:00am 17.2 11.9 15.2 88 1.2 SSE 37 44 20 24 1025.4 1025.2 2.0
30/04:30am 16.4 12.1 14.4 88 1.1 S 30 35 16 19 1025.7 1025.5 2.0
30/04:00am 16.3 11.0 14.1 87 1.2 S 35 44 19 24 1026.0 1025.8 2.0
30/03:30am 16.5 12.6 14.3 87 1.3 S 28 33 15 18 1026.3 1026.1 2.0
30/03:00am 16.5 12.9 14.2 86 1.3 S 26 33 14 18 1026.4 1026.2 2.0
30/02:30am 16.9 13.2 14.0 83 1.7 SSE 26 35 14 19 1026.4 1026.2 2.0
30/02:00am 17.4 14.7 14.5 83 1.7 SSE 22 32 12 17 1026.4 1026.2 2.0
30/01:30am 17.2 13.6 14.3 83 1.7 S 26 33 14 18 1026.5 1026.3 2.0
30/01:00am 17.0 13.7 14.1 83 1.7 SSE 24 39 13 21 1026.8 1026.6 2.0
30/12:30am 18.8 13.1 13.0 69 3.3 ESE 35 41 19 22 1026.7 1026.5 2.0
30/12:00am 18.5 14.4 15.0 80 2.0 SE 30 41 16 22 1026.8 1026.6 2.0
 
Date/Time
EST
Temp
°C
App
Temp
°C
Dew
Point
Rel
Hum
%
Delta-T
°C
Wind Press
QNH
hPa
Press
MSL
hPa
Rain
since 9 am
mm
Dir
 
Spd
km/h
Gust
km/h
Spd
kts
Gust
kts
29/11:30pm 17.0 13.5 14.6 86 1.4 SSE 26 33 14 18 1027.0 1026.8 2.0
29/11:00pm 17.0 12.4 14.5 85 1.4 S 32 39 17 21 1026.8 1026.6 2.0
29/10:30pm 18.1 13.0 14.8 81 1.9 ESE 35 46 19 25 1027.0 1026.8 2.0
29/10:00pm 17.6 11.6 14.5 82 1.8 SE 39 50 21 27 1027.1 1026.9 2.0
29/09:57pm 17.4 11.8 14.5 83 1.7 SE 37 50 20 27 1027.1 1026.9 2.0
29/09:30pm 17.0 8.4 14.1 83 1.7 SE 52 61 28 33 1027.3 1027.1 1.8
29/09:17pm 17.4 13.5 15.4 88 1.2 SE 30 54 16 29 1027.4 1027.2 1.6
29/09:00pm 16.5 11.0 14.7 89 1.0 SSE 37 43 20 23 1027.4 1027.2 1.6
29/08:30pm 16.3 9.1 14.7 90 0.9 SE 46 59 25 32 1027.5 1027.3 1.6
29/08:16pm 17.2 11.5 15.2 88 1.2 SSE 39 57 21 31 1027.3 1027.1 0.6
29/08:00pm 17.2 12.1 14.7 85 1.4 SSE 35 43 19 23 1027.4 1027.2 0.6
29/07:50pm 17.3 13.5 14.8 85 1.5 SE 28 44 15 24 1027.4 1027.2 0.6
29/07:42pm 17.2 15.0 14.5 84 1.6 ESE 19 26 10 14 1027.5 1027.3 0.6
29/07:30pm 17.3 10.5 14.2 82 1.8 E 43 56 23 30 1027.4 1027.2 0.4
29/07:19pm 18.4 12.2 14.9 80 2.0 ESE 41 52 22 28 1027.1 1026.9 0.2
29/07:11pm 18.0 13.4 14.7 81 1.9 SSE 32 50 17 27 1027.1 1026.9 0.2
29/07:10pm 18.1 14.0 14.8 81 1.9 S 30 50 16 27 1027.0 1026.8 0.2
29/07:09pm 17.9 14.1 14.6 81 1.9 S 28 44 15 24 1027.1 1026.9 0.2
29/07:00pm 18.5 16.1 14.4 77 2.4 SSE 20 26 11 14 1027.2 1027.0 0.2
29/06:30pm 19.3 15.5 13.5 69 3.3 ESE 26 30 14 16 1026.9 1026.7 0.2

Other Formats:

Comma delimited format used in spreadsheet applications
http://www.bom.gov.au/fwo/IDQ60801/IDQ60801.94584.axf

JavaScript Object Notation format (JSON) in row-major order
http://www.bom.gov.au/fwo/IDQ60801/IDQ60801.94584.json